Flight Track Log - Related Links

Times and Time Zones

All times are in EDT time to prevent confusion due to time zone crossing. See the SWA534 flight status page for this flight to view local times or setup timezone preferences in your user account.

Time Position Orientation Groundspeed Altitude Reporting Facility
EDT Latitude Longitude Course Direction KTS MPH feet Rate Location/Type
Mon 06:53:46 PM 37.8333 -122.3500 329° Northwest 291 335 4,000  Level Northern Cal TRACON
Mon 06:54:46 PM 37.8833 -122.2833 46° Northeast 290 334 6,700 2,548 Climbing Northern Cal TRACON
Mon 06:56:12 PM 37.9811 -122.2261 25° Northeast 298 343 10,200 2,571 Climbing Oakland Center
Mon 06:57:13 PM 38.0897 -122.2250 360° North 335 386 13,000 2,146 Climbing Oakland Center
Mon 06:58:00 PM 38.3500 -122.3708 357° North  Level FlightAware Approximate
Mon 06:58:15 PM 38.1942 -122.2339 356° North 371 427 14,600  Level Oakland Center
Mon 06:59:17 PM 38.3100 -122.2422 357° North 409 471 16,700 2,390 Climbing Oakland Center
Mon 07:00:18 PM 38.4261 -122.2519 356° North 419 482 19,500 2,293 Climbing Oakland Center
Mon 07:01:20 PM 38.5428 -122.2625 356° North 421 484 21,400 1,742 Climbing Oakland Center
Mon 07:02:22 PM 38.6633 -122.2714 357° North 431 496 23,100 1,463 Climbing Oakland Center
Mon 07:03:23 PM 38.8011 -122.2828 356° North 455 524 24,400 1,220 Climbing Oakland Center
Mon 07:04:25 PM 38.9367 -122.2939 356° North 479 551 25,600 1,452 Climbing Oakland Center
Mon 07:05:27 PM 39.0742 -122.3058 356° North 491 565 27,400 1,805 Climbing Oakland Center
Mon 07:06:28 PM 39.2381 -122.3214 356° North 491 565 29,300 1,512 Climbing Oakland Center
Mon 07:07:30 PM 39.3750 -122.3328 356° North 491 565 30,500 1,210 Climbing Oakland Center
Mon 07:08:32 PM 39.5153 -122.3406 358° North 498 573 31,800 1,122 Climbing Oakland Center
Mon 07:09:33 PM 39.6533 -122.3517 356° North 498 573 32,800 829 Climbing Oakland Center
Mon 07:10:35 PM 39.7953 -122.3644 356° North 506 582 33,500 1,024 Climbing Oakland Center
Mon 07:11:36 PM 39.9386 -122.3769 356° North 512 589 34,900 1,220 Climbing Oakland Center
Mon 07:12:38 PM 40.0900 -122.3911 356° North 506 582 36,000 532 Climbing Oakland Center
Mon 07:13:40 PM 40.2189 -122.4053 355° North 491 565 36,000  Level Oakland Center
Mon 07:14:41 PM 40.3758 -122.4139 358° North 520 598 36,000  Level Oakland Center
Mon 07:15:43 PM 40.5336 -122.4281 356° North 508 585 36,000  Level Oakland Center
Mon 07:16:44 PM 40.6578 -122.4372 357° North 510 587 36,000  Level Oakland Center
Mon 07:17:46 PM 40.8286 -122.4503 357° North 512 589 36,000  Level Oakland Center
Mon 07:18:47 PM 40.9706 -122.4625 356° North 512 589 36,000  Level Oakland Center
Mon 07:19:49 PM 41.1156 -122.4775 356° North 521 600 36,000 -634 Level Oakland Center
Mon 07:20:50 PM 41.2608 -122.4906 356° North 524 603 34,700 -976 Descending Oakland Center
Mon 07:21:52 PM 41.3914 -122.4978 358° North 528 608 34,000 -341 Descending Oakland Center
Mon 07:22:53 PM 41.5708 -122.5028 359° North 536 617 34,000  Level Oakland Center
Mon 07:23:55 PM 41.7222 -122.5133 357° North 543 625 34,000  Level Oakland Center
Mon 07:24:57 PM 41.8725 -122.5211 358° North 539 620 34,000  Level Oakland Center
Mon 07:25:58 PM 42.0242 -122.5269 358° North 540 621 34,000  Level Oakland Center
Mon 07:27:00 PM 42.1764 -122.5342 358° North 541 623 34,000  Level Oakland Center
Mon 07:28:23 PM 42.3897 -122.5422 358° North 541 623 34,000 -375 Level Seattle Center
Mon 07:29:24 PM 42.5406 -122.5486 358° North 538 619 33,100 -984 Descending Seattle Center
Mon 07:30:25 PM 42.6897 -122.5561 358° North 534 615 32,000 -541 Descending Seattle Center
Mon 07:31:26 PM 42.8372 -122.5636 358° North 542 624 32,000  Level Seattle Center
Mon 07:32:27 PM 42.9889 -122.5706 358° North 543 625 32,000  Level Seattle Center
Mon 07:33:28 PM 43.1378 -122.5775 358° North 539 620 32,000  Level Seattle Center
Mon 07:34:29 PM 43.2889 -122.5842 358° North 542 624 32,000  Level Seattle Center
Mon 07:35:30 PM 43.4419 -122.5936 357° North 550 633 32,000  Level Seattle Center
Mon 07:36:31 PM 43.6231 -122.6017 358° North 546 628 32,000  Level Seattle Center
Mon 07:37:32 PM 43.7769 -122.6100 358° North 551 634 32,000  Level Seattle Center
Mon 07:38:33 PM 43.9303 -122.6158 358° North 555 639 32,000 -1,230 Level Seattle Center
Mon 07:39:34 PM 44.0814 -122.6242 358° North 550 633 29,500 -2,607 Descending Seattle Center
Mon 07:40:35 PM 44.2283 -122.6317 358° North 539 620 26,700 -2,508 Descending Seattle Center
Mon 07:41:36 PM 44.3558 -122.6411 357° North 513 590 24,400 -2,656 Descending Seattle Center
Mon 07:42:37 PM 44.5169 -122.6483 358° North 489 563 21,300 -2,754 Descending Seattle Center
Mon 07:43:38 PM 44.6453 -122.6544 358° North 469 540 18,800 -2,556 Descending Seattle Center
Mon 07:44:25 PM 44.7464 -122.6597 358° North 444 511 16,700 -2,649 Descending Seattle Center
Mon 07:44:55 PM 44.8081 -122.6653 356° North 434 499 15,400 -2,480 Descending Seattle Center
Mon 07:45:40 PM 44.8861 -122.6686 358° North 427 491 13,600 -1,925 Descending Seattle Center
Mon 07:46:41 PM 44.9975 -122.6700 359° North 407 468 12,000 -1,230 Descending Seattle Center
Mon 07:47:42 PM 45.0983 -122.6586 North 372 428 11,100 -1,131 Descending Seattle Center
Mon 07:48:43 PM 45.1917 -122.6492 North 346 398 9,700 -1,377 Descending Seattle Center
Mon 07:49:44 PM 45.2753 -122.6225 13° North 319 367 8,300 -1,426 Descending Seattle Center
Mon 07:50:45 PM 45.3367 -122.5392 44° Northeast 306 352 6,800 -1,377 Descending Seattle Center
Mon 07:51:46 PM 45.4033 -122.4756 34° Northeast 293 337 5,500 -1,672 Descending Seattle Center
Mon 07:52:47 PM 45.4842 -122.4161 27° Northeast 276 318 3,400 -1,672 Descending Seattle Center
Mon 07:53:48 PM 45.5306 -122.4500 333° Northwest 232 267 2,100 -1,033 Descending Seattle Center
Mon 07:54:49 PM 45.5506 -122.5125 295° West 192 221 1,300 -738 Descending Seattle Center
Mon 07:55:50 PM 45.5728 -122.5644 301° West 170 196 600 -689 Descending Seattle Center

Login

Don't have an account? Register now (free) for customized features, flight alerts, and more!